Kissimmee, FL

11:50 AM EDT on May 24, 2015 (GMT -0400)
Kissimmee Municipal | | Change Station
CLOSE
Current Station
Airport
Location: Kissimmee,
Elevation: 82 ft
Nearby Weather Stations

Elev 82 ft 28.29 °N, 81.44 °W | Updated 31 seconds ago

Mostly Cloudy
Mostly Cloudy
86 °F
Feels Like 92 °F
N
16
Wind Variable Wind from ENE
Gusts 23 mph

Today
High -- | Low -- °F
--% Chance of Precip.
Yesterday
High -- | Low -- °F
Precip. -- in
6:31 AM 8:14 PM
Waxing Crescent, 40% visible
Pressure 30.22 in
Visibility 10.0 miles
Clouds Mostly Cloudy 3000 ft
Heat Index 92 °F
Dew Point 72 °F
Humidity 62%
Rainfall 0.00 in
Snow Depth Not available.
UV 7 out of 12
Pollen 5.20 out of 12
Air Quality Not available.
Flu Activity Sporadic
METAR KISM 241550Z 07014G20KT 10SM BKN030 30/22 A3022

More Conditions Fewer Conditions

Pressure 30.22 in
Visibility 10.0 miles
Clouds Mostly Cloudy 3000 ft
Heat Index 92 °F
Dew Point 72 °F
Humidity 62%
Rainfall 0.00 in
Snow Depth Not available.
UV 7 out of 12
Pollen 5.20 out of 12
Air Quality Not available.
Flu Activity Sporadic
METAR KISM 241550Z 07014G20KT 10SM BKN030 30/22 A3022

More Conditions Fewer Conditions

Nowcast | as of 9:00 am EDT on May 24, 2015

strengthening onshore winds will push showers onshore and cause rough surf and boating conditions... Through the remainder of this morning...scattered showers along an old frontal boundary will continue to move west at 20 mph over the Atlantic waters and onshore central Brevard County from around Cocoa Beach and Cape Canaveral inland across rural northeastern Osceola and southeastern Orange counties. A few brief downpours will produce up to around one tenth of an inch of rainfall. Elsewhere...isolated showers will be possible by early afternoon. Gusty onshore winds of 15 to 20 mph will produce rough choppy surf and an increased threat of dangerous rip currents. Choppy...short period seas of 4 to 6 feet will produce unfavorable conditions for small craft operation. Additional details...including graphics are available online at: http://www.Srh.NOAA.Gov/mlb/blog.Php

×

10-Day Weather Forecast

Almanac

Astronomy

May. 24, 2015 Rise Set
Actual Time
Civil Twilight
Nautical Twilight
Astronomical Twilight
Moon
Length of Visible Light
Length of Day
Tomorrow will be .
, % of the Moon is Illuminated

Today's Extremes

State Highs State Lows

Community

WunderPhotos

Upload Photos

1,823,779 photos uploaded!

WunderBlogs® & News

Nearby

Air Quality

  Air Quality AQ Index Pollutant
Not available.

Snow Depth

Station Depth Elevation

Earthquake Activity

City Distance Mag. Time & Date
Minimum magnitude displayed is 2.5.

Coastal Water Temperatures

Place Temperature

Stations

Nearby Weather Stations

Station Location Temp. Windchill Dew Point Humidity Wind Precip. Elev Updated Type